sensor_id;sensor_type;location;lat;lon;timestamp;P1;durP1;ratioP1;P2;durP2;ratioP2
67185;SDS011;54116;53.518;49.398;2022-12-18T00:00:54;21.17;;;6.18;;
67185;SDS011;54116;53.518;49.398;2022-12-18T00:03:20;17.10;;;5.72;;
67185;SDS011;54116;53.518;49.398;2022-12-18T00:05:47;19.25;;;6.38;;
67185;SDS011;54116;53.518;49.398;2022-12-18T00:08:14;17.63;;;5.80;;
67185;SDS011;54116;53.518;49.398;2022-12-18T00:10:40;19.30;;;5.85;;
67185;SDS011;54116;53.518;49.398;2022-12-18T00:13:06;20.50;;;6.65;;
67185;SDS011;54116;53.518;49.398;2022-12-18T00:15:33;20.70;;;6.13;;
67185;SDS011;54116;53.518;49.398;2022-12-18T00:18:00;20.13;;;6.78;;
67185;SDS011;54116;53.518;49.398;2022-12-18T00:20:26;16.80;;;6.00;;
67185;SDS011;54116;53.518;49.398;2022-12-18T00:22:53;19.73;;;6.85;;
67185;SDS011;54116;53.518;49.398;2022-12-18T00:25:19;18.55;;;6.22;;
67185;SDS011;54116;53.518;49.398;2022-12-18T00:27:45;20.08;;;6.53;;
67185;SDS011;54116;53.518;49.398;2022-12-18T00:30:11;24.40;;;6.65;;
67185;SDS011;54116;53.518;49.398;2022-12-18T00:32:37;17.85;;;6.47;;
67185;SDS011;54116;53.518;49.398;2022-12-18T00:35:04;19.98;;;6.93;;
67185;SDS011;54116;53.518;49.398;2022-12-18T00:37:33;19.58;;;6.57;;
67185;SDS011;54116;53.518;49.398;2022-12-18T00:39:59;18.98;;;6.22;;
67185;SDS011;54116;53.518;49.398;2022-12-18T00:42:26;27.80;;;7.00;;
67185;SDS011;54116;53.518;49.398;2022-12-18T00:45:10;17.02;;;6.18;;
67185;SDS011;54116;53.518;49.398;2022-12-18T00:47:36;19.50;;;6.75;;
67185;SDS011;54116;53.518;49.398;2022-12-18T00:50:02;18.13;;;5.68;;
67185;SDS011;54116;53.518;49.398;2022-12-18T00:52:29;18.48;;;6.28;;
67185;SDS011;54116;53.518;49.398;2022-12-18T00:54:55;16.27;;;5.88;;
67185;SDS011;54116;53.518;49.398;2022-12-18T00:57:21;18.63;;;6.18;;
67185;SDS011;54116;53.518;49.398;2022-12-18T00:59:47;17.05;;;5.72;;
67185;SDS011;54116;53.518;49.398;2022-12-18T01:02:13;19.63;;;5.38;;
67185;SDS011;54116;53.518;49.398;2022-12-18T01:04:39;17.67;;;5.60;;
67185;SDS011;54116;53.518;49.398;2022-12-18T01:07:05;19.58;;;6.07;;
67185;SDS011;54116;53.518;49.398;2022-12-18T01:09:31;15.52;;;6.05;;
67185;SDS011;54116;53.518;49.398;2022-12-18T01:11:57;19.85;;;6.47;;
67185;SDS011;54116;53.518;49.398;2022-12-18T01:14:23;18.05;;;6.35;;
67185;SDS011;54116;53.518;49.398;2022-12-18T01:16:49;18.75;;;6.07;;
67185;SDS011;54116;53.518;49.398;2022-12-18T01:19:15;13.23;;;5.15;;
67185;SDS011;54116;53.518;49.398;2022-12-18T01:21:41;18.95;;;6.30;;
67185;SDS011;54116;53.518;49.398;2022-12-18T01:24:10;19.17;;;6.13;;
67185;SDS011;54116;53.518;49.398;2022-12-18T01:26:37;18.90;;;5.40;;
67185;SDS011;54116;53.518;49.398;2022-12-18T01:29:03;20.63;;;6.28;;
67185;SDS011;54116;53.518;49.398;2022-12-18T01:31:30;15.63;;;6.05;;
67185;SDS011;54116;53.518;49.398;2022-12-18T01:33:59;15.90;;;5.90;;
67185;SDS011;54116;53.518;49.398;2022-12-18T01:36:28;11.50;;;4.65;;
67185;SDS011;54116;53.518;49.398;2022-12-18T01:38:59;15.88;;;5.60;;
67185;SDS011;54116;53.518;49.398;2022-12-18T01:41:28;13.65;;;5.30;;
67185;SDS011;54116;53.518;49.398;2022-12-18T01:47:20;14.10;;;5.63;;
67185;SDS011;54116;53.518;49.398;2022-12-18T01:49:53;14.15;;;4.70;;
67185;SDS011;54116;53.518;49.398;2022-12-18T01:52:20;18.10;;;5.15;;
67185;SDS011;54116;53.518;49.398;2022-12-18T01:54:47;15.80;;;4.72;;
67185;SDS011;54116;53.518;49.398;2022-12-18T01:57:15;16.50;;;5.32;;
67185;SDS011;54116;53.518;49.398;2022-12-18T02:02:08;13.88;;;4.78;;
67185;SDS011;54116;53.518;49.398;2022-12-18T02:09:55;17.42;;;5.38;;
67185;SDS011;54116;53.518;49.398;2022-12-18T02:12:30;15.68;;;5.15;;
67185;SDS011;54116;53.518;49.398;2022-12-18T02:17:50;16.70;;;5.38;;
67185;SDS011;54116;53.518;49.398;2022-12-18T02:20:23;16.38;;;6.15;;
67185;SDS011;54116;53.518;49.398;2022-12-18T02:28:20;15.73;;;5.15;;
67185;SDS011;54116;53.518;49.398;2022-12-18T02:30:51;13.93;;;4.80;;
67185;SDS011;54116;53.518;49.398;2022-12-18T02:33:21;18.92;;;5.85;;
67185;SDS011;54116;53.518;49.398;2022-12-18T02:35:49;16.45;;;5.20;;
67185;SDS011;54116;53.518;49.398;2022-12-18T02:38:18;18.98;;;5.45;;
67185;SDS011;54116;53.518;49.398;2022-12-18T02:40:44;14.77;;;4.80;;
67185;SDS011;54116;53.518;49.398;2022-12-18T02:43:12;19.13;;;6.10;;
67185;SDS011;54116;53.518;49.398;2022-12-18T02:45:47;14.77;;;4.90;;
67185;SDS011;54116;53.518;49.398;2022-12-18T02:48:17;13.98;;;4.75;;
67185;SDS011;54116;53.518;49.398;2022-12-18T02:51:03;15.30;;;4.68;;
67185;SDS011;54116;53.518;49.398;2022-12-18T02:53:38;15.98;;;5.03;;
67185;SDS011;54116;53.518;49.398;2022-12-18T02:56:43;14.98;;;5.25;;
67185;SDS011;54116;53.518;49.398;2022-12-18T02:59:19;14.90;;;4.00;;
67185;SDS011;54116;53.518;49.398;2022-12-18T03:01:55;11.20;;;4.07;;
67185;SDS011;54116;53.518;49.398;2022-12-18T03:07:05;13.48;;;4.60;;
67185;SDS011;54116;53.518;49.398;2022-12-18T03:09:36;10.40;;;3.85;;
67185;SDS011;54116;53.518;49.398;2022-12-18T03:12:08;12.35;;;3.97;;
67185;SDS011;54116;53.518;49.398;2022-12-18T03:17:48;13.27;;;4.22;;
67185;SDS011;54116;53.518;49.398;2022-12-18T03:20:18;10.93;;;4.05;;
67185;SDS011;54116;53.518;49.398;2022-12-18T03:22:47;11.52;;;4.15;;
67185;SDS011;54116;53.518;49.398;2022-12-18T03:25:19;9.13;;;3.33;;
67185;SDS011;54116;53.518;49.398;2022-12-18T03:27:47;9.80;;;3.92;;
67185;SDS011;54116;53.518;49.398;2022-12-18T03:30:16;9.13;;;3.00;;
67185;SDS011;54116;53.518;49.398;2022-12-18T03:33:07;9.55;;;3.08;;
67185;SDS011;54116;53.518;49.398;2022-12-18T03:35:37;10.25;;;3.78;;
67185;SDS011;54116;53.518;49.398;2022-12-18T03:38:06;17.20;;;3.22;;
67185;SDS011;54116;53.518;49.398;2022-12-18T03:40:35;9.65;;;3.42;;
67185;SDS011;54116;53.518;49.398;2022-12-18T03:43:16;10.15;;;3.55;;
67185;SDS011;54116;53.518;49.398;2022-12-18T03:46:04;10.50;;;3.65;;
67185;SDS011;54116;53.518;49.398;2022-12-18T03:48:38;10.32;;;3.80;;
67185;SDS011;54116;53.518;49.398;2022-12-18T03:51:10;8.43;;;3.58;;
67185;SDS011;54116;53.518;49.398;2022-12-18T03:53:58;10.70;;;3.58;;
67185;SDS011;54116;53.518;49.398;2022-12-18T03:56:26;8.73;;;2.53;;
67185;SDS011;54116;53.518;49.398;2022-12-18T03:58:56;10.23;;;3.10;;
67185;SDS011;54116;53.518;49.398;2022-12-18T04:01:31;9.27;;;2.88;;
67185;SDS011;54116;53.518;49.398;2022-12-18T04:06:30;6.78;;;2.15;;
67185;SDS011;54116;53.518;49.398;2022-12-18T04:09:00;7.18;;;2.17;;
67185;SDS011;54116;53.518;49.398;2022-12-18T04:11:26;7.97;;;2.45;;
67185;SDS011;54116;53.518;49.398;2022-12-18T04:13:56;6.63;;;2.10;;
67185;SDS011;54116;53.518;49.398;2022-12-18T04:16:24;6.45;;;1.98;;
67185;SDS011;54116;53.518;49.398;2022-12-18T04:18:51;8.93;;;3.08;;
67185;SDS011;54116;53.518;49.398;2022-12-18T04:23:43;7.22;;;2.05;;
67185;SDS011;54116;53.518;49.398;2022-12-18T04:26:09;6.63;;;2.17;;
67185;SDS011;54116;53.518;49.398;2022-12-18T04:28:35;6.93;;;1.90;;
67185;SDS011;54116;53.518;49.398;2022-12-18T04:31:01;6.60;;;2.03;;
67185;SDS011;54116;53.518;49.398;2022-12-18T04:33:28;6.80;;;2.15;;
67185;SDS011;54116;53.518;49.398;2022-12-18T04:38:20;4.63;;;1.70;;
67185;SDS011;54116;53.518;49.398;2022-12-18T04:40:46;8.45;;;2.70;;
67185;SDS011;54116;53.518;49.398;2022-12-18T04:43:13;5.85;;;1.83;;
67185;SDS011;54116;53.518;49.398;2022-12-18T04:45:39;5.95;;;1.75;;
67185;SDS011;54116;53.518;49.398;2022-12-18T04:48:05;7.13;;;2.00;;
67185;SDS011;54116;53.518;49.398;2022-12-18T04:50:31;5.22;;;1.70;;
67185;SDS011;54116;53.518;49.398;2022-12-18T04:52:57;5.80;;;1.85;;
67185;SDS011;54116;53.518;49.398;2022-12-18T04:55:23;5.93;;;1.92;;
67185;SDS011;54116;53.518;49.398;2022-12-18T04:57:50;4.30;;;1.25;;
67185;SDS011;54116;53.518;49.398;2022-12-18T05:00:16;5.10;;;1.50;;
67185;SDS011;54116;53.518;49.398;2022-12-18T05:02:42;5.15;;;1.40;;
67185;SDS011;54116;53.518;49.398;2022-12-18T05:05:08;4.97;;;1.48;;
67185;SDS011;54116;53.518;49.398;2022-12-18T05:07:34;3.75;;;1.25;;
67185;SDS011;54116;53.518;49.398;2022-12-18T05:12:26;5.43;;;1.50;;
67185;SDS011;54116;53.518;49.398;2022-12-18T05:14:52;4.65;;;1.30;;
67185;SDS011;54116;53.518;49.398;2022-12-18T05:17:18;5.05;;;1.70;;
67185;SDS011;54116;53.518;49.398;2022-12-18T05:19:44;5.88;;;2.08;;
67185;SDS011;54116;53.518;49.398;2022-12-18T05:22:11;7.15;;;1.70;;
67185;SDS011;54116;53.518;49.398;2022-12-18T05:24:37;5.70;;;1.42;;
67185;SDS011;54116;53.518;49.398;2022-12-18T05:27:03;3.92;;;1.58;;
67185;SDS011;54116;53.518;49.398;2022-12-18T05:29:30;5.60;;;1.60;;
67185;SDS011;54116;53.518;49.398;2022-12-18T05:31:56;5.45;;;2.00;;
67185;SDS011;54116;53.518;49.398;2022-12-18T05:34:22;5.68;;;2.00;;
67185;SDS011;54116;53.518;49.398;2022-12-18T05:36:50;4.60;;;1.77;;
67185;SDS011;54116;53.518;49.398;2022-12-18T05:39:16;6.22;;;1.77;;
67185;SDS011;54116;53.518;49.398;2022-12-18T05:41:42;5.40;;;1.85;;
67185;SDS011;54116;53.518;49.398;2022-12-18T05:44:08;7.32;;;2.42;;
67185;SDS011;54116;53.518;49.398;2022-12-18T05:46:34;5.20;;;1.70;;
67185;SDS011;54116;53.518;49.398;2022-12-18T05:49:00;7.55;;;2.83;;
67185;SDS011;54116;53.518;49.398;2022-12-18T05:51:29;6.95;;;2.55;;
67185;SDS011;54116;53.518;49.398;2022-12-18T05:53:55;6.10;;;2.42;;
67185;SDS011;54116;53.518;49.398;2022-12-18T05:56:22;7.43;;;2.72;;
67185;SDS011;54116;53.518;49.398;2022-12-18T05:58:52;8.82;;;2.90;;
67185;SDS011;54116;53.518;49.398;2022-12-18T06:01:21;8.75;;;3.25;;
67185;SDS011;54116;53.518;49.398;2022-12-18T06:03:49;7.70;;;2.97;;
67185;SDS011;54116;53.518;49.398;2022-12-18T06:06:16;11.57;;;3.65;;
67185;SDS011;54116;53.518;49.398;2022-12-18T06:08:44;10.98;;;4.07;;
67185;SDS011;54116;53.518;49.398;2022-12-18T06:11:12;12.48;;;4.10;;
67185;SDS011;54116;53.518;49.398;2022-12-18T06:13:38;11.07;;;4.45;;
67185;SDS011;54116;53.518;49.398;2022-12-18T06:16:06;12.90;;;4.90;;
67185;SDS011;54116;53.518;49.398;2022-12-18T06:18:33;13.93;;;4.85;;
67185;SDS011;54116;53.518;49.398;2022-12-18T06:21:02;11.35;;;4.55;;
67185;SDS011;54116;53.518;49.398;2022-12-18T06:23:28;16.92;;;5.60;;
67185;SDS011;54116;53.518;49.398;2022-12-18T06:25:55;17.33;;;5.35;;
67185;SDS011;54116;53.518;49.398;2022-12-18T06:30:47;15.57;;;5.97;;
67185;SDS011;54116;53.518;49.398;2022-12-18T06:33:16;18.80;;;7.40;;
67185;SDS011;54116;53.518;49.398;2022-12-18T06:35:42;18.92;;;6.45;;
67185;SDS011;54116;53.518;49.398;2022-12-18T06:38:08;22.10;;;6.40;;
67185;SDS011;54116;53.518;49.398;2022-12-18T06:40:36;21.13;;;7.15;;
67185;SDS011;54116;53.518;49.398;2022-12-18T06:43:04;19.05;;;6.47;;
67185;SDS011;54116;53.518;49.398;2022-12-18T06:45:30;23.65;;;7.47;;
67185;SDS011;54116;53.518;49.398;2022-12-18T06:47:56;22.38;;;7.20;;
67185;SDS011;54116;53.518;49.398;2022-12-18T06:50:23;22.10;;;6.55;;
67185;SDS011;54116;53.518;49.398;2022-12-18T06:52:49;21.30;;;7.25;;
67185;SDS011;54116;53.518;49.398;2022-12-18T06:55:15;16.65;;;6.55;;
67185;SDS011;54116;53.518;49.398;2022-12-18T06:57:41;26.27;;;7.57;;
67185;SDS011;54116;53.518;49.398;2022-12-18T07:00:07;19.17;;;6.88;;
67185;SDS011;54116;53.518;49.398;2022-12-18T07:05:00;19.77;;;7.53;;
67185;SDS011;54116;53.518;49.398;2022-12-18T07:07:26;18.85;;;5.93;;
67185;SDS011;54116;53.518;49.398;2022-12-18T07:09:52;20.48;;;6.78;;
67185;SDS011;54116;53.518;49.398;2022-12-18T07:12:18;22.92;;;7.75;;
67185;SDS011;54116;53.518;49.398;2022-12-18T07:14:44;28.05;;;8.85;;
67185;SDS011;54116;53.518;49.398;2022-12-18T07:17:11;20.98;;;7.65;;
67185;SDS011;54116;53.518;49.398;2022-12-18T07:19:37;19.13;;;6.60;;
67185;SDS011;54116;53.518;49.398;2022-12-18T07:22:05;23.60;;;7.40;;
67185;SDS011;54116;53.518;49.398;2022-12-18T07:24:33;23.10;;;8.63;;
67185;SDS011;54116;53.518;49.398;2022-12-18T07:26:59;24.73;;;8.45;;
67185;SDS011;54116;53.518;49.398;2022-12-18T07:29:25;21.38;;;8.20;;
67185;SDS011;54116;53.518;49.398;2022-12-18T07:31:52;23.77;;;7.47;;
67185;SDS011;54116;53.518;49.398;2022-12-18T07:34:18;27.15;;;7.90;;
67185;SDS011;54116;53.518;49.398;2022-12-18T07:36:44;21.95;;;8.18;;
67185;SDS011;54116;53.518;49.398;2022-12-18T07:39:10;18.83;;;7.10;;
67185;SDS011;54116;53.518;49.398;2022-12-18T07:41:37;23.73;;;7.68;;
67185;SDS011;54116;53.518;49.398;2022-12-18T07:44:03;22.55;;;7.40;;
67185;SDS011;54116;53.518;49.398;2022-12-18T07:46:29;23.58;;;8.15;;
67185;SDS011;54116;53.518;49.398;2022-12-18T07:48:55;22.50;;;8.05;;
67185;SDS011;54116;53.518;49.398;2022-12-18T07:51:21;26.90;;;8.48;;
67185;SDS011;54116;53.518;49.398;2022-12-18T07:53:48;27.50;;;8.57;;
67185;SDS011;54116;53.518;49.398;2022-12-18T07:56:14;22.15;;;8.85;;
67185;SDS011;54116;53.518;49.398;2022-12-18T07:58:40;28.80;;;9.00;;
67185;SDS011;54116;53.518;49.398;2022-12-18T08:01:07;23.52;;;9.13;;
67185;SDS011;54116;53.518;49.398;2022-12-18T08:03:35;24.50;;;8.50;;
67185;SDS011;54116;53.518;49.398;2022-12-18T08:06:02;23.65;;;8.68;;
67185;SDS011;54116;53.518;49.398;2022-12-18T08:08:30;29.73;;;8.52;;
67185;SDS011;54116;53.518;49.398;2022-12-18T08:10:56;20.65;;;7.75;;
67185;SDS011;54116;53.518;49.398;2022-12-18T08:13:23;19.23;;;7.57;;
67185;SDS011;54116;53.518;49.398;2022-12-18T08:18:22;29.90;;;9.48;;
67185;SDS011;54116;53.518;49.398;2022-12-18T08:20:49;20.50;;;7.25;;
67185;SDS011;54116;53.518;49.398;2022-12-18T08:23:15;23.50;;;7.60;;
67185;SDS011;54116;53.518;49.398;2022-12-18T08:25:41;24.95;;;8.10;;
67185;SDS011;54116;53.518;49.398;2022-12-18T08:28:08;24.80;;;8.10;;
67185;SDS011;54116;53.518;49.398;2022-12-18T08:30:34;24.20;;;7.65;;
67185;SDS011;54116;53.518;49.398;2022-12-18T08:33:01;25.10;;;7.60;;
67185;SDS011;54116;53.518;49.398;2022-12-18T08:35:28;20.88;;;7.63;;
67185;SDS011;54116;53.518;49.398;2022-12-18T08:37:55;22.65;;;7.15;;
67185;SDS011;54116;53.518;49.398;2022-12-18T08:40:24;19.17;;;7.47;;
67185;SDS011;54116;53.518;49.398;2022-12-18T08:42:50;21.08;;;8.20;;
67185;SDS011;54116;53.518;49.398;2022-12-18T08:45:34;17.52;;;6.72;;
67185;SDS011;54116;53.518;49.398;2022-12-18T08:48:00;19.20;;;7.28;;
67185;SDS011;54116;53.518;49.398;2022-12-18T08:50:26;19.23;;;6.38;;
67185;SDS011;54116;53.518;49.398;2022-12-18T08:52:52;20.20;;;7.07;;
67185;SDS011;54116;53.518;49.398;2022-12-18T08:55:18;21.25;;;7.93;;
67185;SDS011;54116;53.518;49.398;2022-12-18T09:00:14;19.08;;;6.78;;
67185;SDS011;54116;53.518;49.398;2022-12-18T09:02:41;22.15;;;6.35;;
67185;SDS011;54116;53.518;49.398;2022-12-18T09:05:07;14.73;;;6.82;;
67185;SDS011;54116;53.518;49.398;2022-12-18T09:07:33;17.63;;;6.63;;
67185;SDS011;54116;53.518;49.398;2022-12-18T09:09:59;15.15;;;6.03;;
67185;SDS011;54116;53.518;49.398;2022-12-18T09:12:25;16.52;;;5.68;;
67185;SDS011;54116;53.518;49.398;2022-12-18T09:14:51;17.52;;;5.82;;
67185;SDS011;54116;53.518;49.398;2022-12-18T09:17:17;16.80;;;6.35;;
67185;SDS011;54116;53.518;49.398;2022-12-18T09:19:44;15.00;;;5.90;;
67185;SDS011;54116;53.518;49.398;2022-12-18T09:22:10;16.73;;;5.70;;
67185;SDS011;54116;53.518;49.398;2022-12-18T09:27:02;15.45;;;5.72;;
67185;SDS011;54116;53.518;49.398;2022-12-18T09:29:28;14.60;;;5.05;;
67185;SDS011;54116;53.518;49.398;2022-12-18T09:31:54;19.13;;;6.00;;
67185;SDS011;54116;53.518;49.398;2022-12-18T09:34:20;13.15;;;5.20;;
67185;SDS011;54116;53.518;49.398;2022-12-18T09:36:47;12.85;;;4.63;;
67185;SDS011;54116;53.518;49.398;2022-12-18T09:39:13;11.10;;;4.32;;
67185;SDS011;54116;53.518;49.398;2022-12-18T09:41:53;12.73;;;4.20;;
67185;SDS011;54116;53.518;49.398;2022-12-18T09:47:03;13.05;;;5.28;;
67185;SDS011;54116;53.518;49.398;2022-12-18T09:49:34;13.23;;;4.53;;
67185;SDS011;54116;53.518;49.398;2022-12-18T09:52:16;12.40;;;4.75;;
67185;SDS011;54116;53.518;49.398;2022-12-18T09:57:56;13.00;;;4.78;;
67185;SDS011;54116;53.518;49.398;2022-12-18T10:00:28;13.77;;;4.65;;
67185;SDS011;54116;53.518;49.398;2022-12-18T10:03:08;14.15;;;4.85;;
67185;SDS011;54116;53.518;49.398;2022-12-18T10:16:17;11.45;;;3.88;;
67185;SDS011;54116;53.518;49.398;2022-12-18T10:18:57;13.50;;;4.75;;
67185;SDS011;54116;53.518;49.398;2022-12-18T10:24:26;12.23;;;4.57;;
67185;SDS011;54116;53.518;49.398;2022-12-18T10:27:08;12.77;;;5.10;;
67185;SDS011;54116;53.518;49.398;2022-12-18T10:29:41;13.77;;;4.68;;
67185;SDS011;54116;53.518;49.398;2022-12-18T10:32:15;12.90;;;4.57;;
67185;SDS011;54116;53.518;49.398;2022-12-18T10:34:45;14.13;;;4.93;;
67185;SDS011;54116;53.518;49.398;2022-12-18T10:37:23;11.75;;;4.30;;
67185;SDS011;54116;53.518;49.398;2022-12-18T10:40:07;17.90;;;5.35;;
67185;SDS011;54116;53.518;49.398;2022-12-18T10:42:33;13.23;;;4.90;;
67185;SDS011;54116;53.518;49.398;2022-12-18T10:45:17;10.98;;;4.35;;
67185;SDS011;54116;53.518;49.398;2022-12-18T10:47:45;10.57;;;3.85;;
67185;SDS011;54116;53.518;49.398;2022-12-18T10:50:24;9.50;;;3.45;;
67185;SDS011;54116;53.518;49.398;2022-12-18T10:52:55;9.88;;;3.45;;
67185;SDS011;54116;53.518;49.398;2022-12-18T10:55:24;8.10;;;3.55;;
67185;SDS011;54116;53.518;49.398;2022-12-18T10:57:55;10.32;;;3.40;;
67185;SDS011;54116;53.518;49.398;2022-12-18T11:00:42;10.38;;;3.47;;
67185;SDS011;54116;53.518;49.398;2022-12-18T11:06:08;9.30;;;3.17;;
67185;SDS011;54116;53.518;49.398;2022-12-18T11:11:53;8.13;;;3.40;;
67185;SDS011;54116;53.518;49.398;2022-12-18T11:14:31;9.50;;;3.33;;
67185;SDS011;54116;53.518;49.398;2022-12-18T11:17:00;9.02;;;3.05;;
67185;SDS011;54116;53.518;49.398;2022-12-18T11:19:36;9.68;;;3.15;;
67185;SDS011;54116;53.518;49.398;2022-12-18T11:22:21;10.05;;;3.78;;
67185;SDS011;54116;53.518;49.398;2022-12-18T11:24:52;12.20;;;3.88;;
67185;SDS011;54116;53.518;49.398;2022-12-18T11:27:21;11.15;;;3.72;;
67185;SDS011;54116;53.518;49.398;2022-12-18T11:37:37;14.82;;;5.80;;
67185;SDS011;54116;53.518;49.398;2022-12-18T11:40:17;17.27;;;5.57;;
67185;SDS011;54116;53.518;49.398;2022-12-18T11:42:58;17.20;;;6.18;;
67185;SDS011;54116;53.518;49.398;2022-12-18T11:46:36;17.42;;;5.72;;
67185;SDS011;54116;53.518;49.398;2022-12-18T11:48:40;17.83;;;7.07;;
67185;SDS011;54116;53.518;49.398;2022-12-18T11:51:18;20.02;;;8.10;;
67185;SDS011;54116;53.518;49.398;2022-12-18T11:53:51;19.88;;;7.15;;
67185;SDS011;54116;53.518;49.398;2022-12-18T11:59:20;21.55;;;7.63;;
67185;SDS011;54116;53.518;49.398;2022-12-18T12:01:58;19.50;;;7.63;;
67185;SDS011;54116;53.518;49.398;2022-12-18T12:04:33;23.63;;;8.73;;
67185;SDS011;54116;53.518;49.398;2022-12-18T12:39:56;21.02;;;7.85;;
67185;SDS011;54116;53.518;49.398;2022-12-18T12:48:17;16.83;;;6.75;;
67185;SDS011;54116;53.518;49.398;2022-12-18T12:51:12;16.42;;;6.72;;
67185;SDS011;54116;53.518;49.398;2022-12-18T12:53:50;14.40;;;5.72;;
67185;SDS011;54116;53.518;49.398;2022-12-18T12:56:19;17.23;;;6.10;;
67185;SDS011;54116;53.518;49.398;2022-12-18T12:58:50;15.32;;;6.45;;
67185;SDS011;54116;53.518;49.398;2022-12-18T13:12:36;26.77;;;10.13;;
67185;SDS011;54116;53.518;49.398;2022-12-18T13:15:22;21.73;;;8.90;;
67185;SDS011;54116;53.518;49.398;2022-12-18T13:17:48;19.90;;;7.47;;
67185;SDS011;54116;53.518;49.398;2022-12-18T13:20:14;19.55;;;6.97;;
67185;SDS011;54116;53.518;49.398;2022-12-18T13:22:48;16.92;;;6.80;;
67185;SDS011;54116;53.518;49.398;2022-12-18T13:45:48;11.15;;;4.03;;
67185;SDS011;54116;53.518;49.398;2022-12-18T13:48:24;10.15;;;4.13;;
67185;SDS011;54116;53.518;49.398;2022-12-18T13:51:01;12.40;;;4.40;;
67185;SDS011;54116;53.518;49.398;2022-12-18T13:53:33;9.77;;;3.92;;
67185;SDS011;54116;53.518;49.398;2022-12-18T13:56:03;10.07;;;3.97;;
67185;SDS011;54116;53.518;49.398;2022-12-18T13:58:30;11.60;;;4.28;;
67185;SDS011;54116;53.518;49.398;2022-12-18T14:00:57;11.73;;;4.68;;
67185;SDS011;54116;53.518;49.398;2022-12-18T14:03:26;14.20;;;6.18;;
67185;SDS011;54116;53.518;49.398;2022-12-18T14:05:59;12.02;;;4.70;;
67185;SDS011;54116;53.518;49.398;2022-12-18T14:08:30;12.52;;;4.85;;
67185;SDS011;54116;53.518;49.398;2022-12-18T14:11:00;12.80;;;4.47;;
67185;SDS011;54116;53.518;49.398;2022-12-18T14:13:30;12.90;;;4.65;;
67185;SDS011;54116;53.518;49.398;2022-12-18T14:16:03;13.38;;;4.88;;
67185;SDS011;54116;53.518;49.398;2022-12-18T14:21:22;11.55;;;3.95;;
67185;SDS011;54116;53.518;49.398;2022-12-18T14:26:50;9.30;;;4.28;;
67185;SDS011;54116;53.518;49.398;2022-12-18T14:29:27;11.15;;;3.80;;
67185;SDS011;54116;53.518;49.398;2022-12-18T14:32:11;12.00;;;4.20;;
67185;SDS011;54116;53.518;49.398;2022-12-18T14:34:43;10.68;;;4.72;;
67185;SDS011;54116;53.518;49.398;2022-12-18T14:37:15;10.88;;;4.45;;
67185;SDS011;54116;53.518;49.398;2022-12-18T14:42:39;9.32;;;3.72;;
67185;SDS011;54116;53.518;49.398;2022-12-18T14:48:07;8.40;;;3.72;;
67185;SDS011;54116;53.518;49.398;2022-12-18T14:50:35;10.25;;;4.45;;
67185;SDS011;54116;53.518;49.398;2022-12-18T14:53:01;12.32;;;4.63;;
67185;SDS011;54116;53.518;49.398;2022-12-18T14:55:28;9.60;;;3.78;;
67185;SDS011;54116;53.518;49.398;2022-12-18T15:00:22;10.07;;;3.88;;
67185;SDS011;54116;53.518;49.398;2022-12-18T15:02:53;10.50;;;3.80;;
67185;SDS011;54116;53.518;49.398;2022-12-18T15:05:27;12.73;;;4.60;;
67185;SDS011;54116;53.518;49.398;2022-12-18T15:07:56;10.02;;;3.72;;
67185;SDS011;54116;53.518;49.398;2022-12-18T15:18:10;7.97;;;2.72;;
67185;SDS011;54116;53.518;49.398;2022-12-18T15:20:41;8.18;;;3.08;;
67185;SDS011;54116;53.518;49.398;2022-12-18T15:23:34;7.53;;;2.20;;
67185;SDS011;54116;53.518;49.398;2022-12-18T15:26:12;5.88;;;2.30;;
67185;SDS011;54116;53.518;49.398;2022-12-18T15:33:42;6.40;;;2.25;;
67185;SDS011;54116;53.518;49.398;2022-12-18T15:36:18;5.50;;;2.10;;
67185;SDS011;54116;53.518;49.398;2022-12-18T15:38:47;6.35;;;2.00;;
67185;SDS011;54116;53.518;49.398;2022-12-18T15:41:14;5.75;;;1.75;;
67185;SDS011;54116;53.518;49.398;2022-12-18T15:43:45;5.03;;;1.50;;
67185;SDS011;54116;53.518;49.398;2022-12-18T15:46:13;3.55;;;1.42;;
67185;SDS011;54116;53.518;49.398;2022-12-18T15:48:44;4.65;;;1.58;;
67185;SDS011;54116;53.518;49.398;2022-12-18T15:53:43;6.07;;;1.90;;
67185;SDS011;54116;53.518;49.398;2022-12-18T15:56:10;5.35;;;2.03;;
67185;SDS011;54116;53.518;49.398;2022-12-18T16:01:28;6.65;;;2.10;;
67185;SDS011;54116;53.518;49.398;2022-12-18T16:03:55;6.35;;;2.22;;
67185;SDS011;54116;53.518;49.398;2022-12-18T16:06:22;6.38;;;2.22;;
67185;SDS011;54116;53.518;49.398;2022-12-18T16:08:48;7.68;;;2.50;;
67185;SDS011;54116;53.518;49.398;2022-12-18T16:11:24;8.95;;;2.65;;
67185;SDS011;54116;53.518;49.398;2022-12-18T16:14:08;9.95;;;3.08;;
67185;SDS011;54116;53.518;49.398;2022-12-18T16:16:46;9.38;;;3.17;;
67185;SDS011;54116;53.518;49.398;2022-12-18T16:19:13;8.38;;;2.60;;
67185;SDS011;54116;53.518;49.398;2022-12-18T16:21:40;8.27;;;3.10;;
67185;SDS011;54116;53.518;49.398;2022-12-18T16:24:10;9.95;;;3.53;;
67185;SDS011;54116;53.518;49.398;2022-12-18T16:26:41;9.75;;;3.17;;
67185;SDS011;54116;53.518;49.398;2022-12-18T16:29:08;10.38;;;3.67;;
67185;SDS011;54116;53.518;49.398;2022-12-18T16:31:34;10.65;;;3.53;;
67185;SDS011;54116;53.518;49.398;2022-12-18T16:34:12;10.38;;;3.17;;
67185;SDS011;54116;53.518;49.398;2022-12-18T16:36:48;13.82;;;4.55;;
67185;SDS011;54116;53.518;49.398;2022-12-18T16:39:15;9.98;;;3.35;;
67185;SDS011;54116;53.518;49.398;2022-12-18T16:41:42;10.90;;;3.80;;
67185;SDS011;54116;53.518;49.398;2022-12-18T16:44:08;13.25;;;3.83;;
67185;SDS011;54116;53.518;49.398;2022-12-18T16:46:35;10.10;;;3.75;;
67185;SDS011;54116;53.518;49.398;2022-12-18T16:49:02;13.20;;;4.00;;
67185;SDS011;54116;53.518;49.398;2022-12-18T16:51:28;11.38;;;3.95;;
67185;SDS011;54116;53.518;49.398;2022-12-18T16:53:55;14.07;;;4.50;;
67185;SDS011;54116;53.518;49.398;2022-12-18T16:56:21;11.55;;;4.03;;
67185;SDS011;54116;53.518;49.398;2022-12-18T16:58:51;13.43;;;4.30;;
67185;SDS011;54116;53.518;49.398;2022-12-18T17:01:18;12.88;;;5.00;;
67185;SDS011;54116;53.518;49.398;2022-12-18T17:03:52;14.18;;;4.30;;
67185;SDS011;54116;53.518;49.398;2022-12-18T17:06:20;15.27;;;4.60;;
67185;SDS011;54116;53.518;49.398;2022-12-18T17:08:47;11.30;;;4.30;;
67185;SDS011;54116;53.518;49.398;2022-12-18T17:11:19;13.07;;;4.10;;
67185;SDS011;54116;53.518;49.398;2022-12-18T17:13:45;13.90;;;4.72;;
67185;SDS011;54116;53.518;49.398;2022-12-18T17:16:12;13.43;;;4.07;;
67185;SDS011;54116;53.518;49.398;2022-12-18T17:18:38;13.10;;;4.95;;
67185;SDS011;54116;53.518;49.398;2022-12-18T17:21:05;13.82;;;4.55;;
67185;SDS011;54116;53.518;49.398;2022-12-18T17:23:33;12.00;;;4.10;;
67185;SDS011;54116;53.518;49.398;2022-12-18T17:26:02;12.65;;;4.40;;
67185;SDS011;54116;53.518;49.398;2022-12-18T17:28:31;12.77;;;4.75;;
67185;SDS011;54116;53.518;49.398;2022-12-18T17:30:59;13.27;;;4.57;;
67185;SDS011;54116;53.518;49.398;2022-12-18T17:33:25;12.35;;;4.10;;
67185;SDS011;54116;53.518;49.398;2022-12-18T17:35:51;13.00;;;4.38;;
67185;SDS011;54116;53.518;49.398;2022-12-18T17:38:18;14.88;;;4.65;;
67185;SDS011;54116;53.518;49.398;2022-12-18T17:40:44;12.70;;;3.97;;
67185;SDS011;54116;53.518;49.398;2022-12-18T17:43:10;14.38;;;4.35;;
67185;SDS011;54116;53.518;49.398;2022-12-18T17:45:37;9.90;;;3.75;;